Time;durP1;ratioP1;P1;durP2;ratioP2;P2;SDS_P1;SDS_P2;PMS_P1;PMS_P2;Temp;Humidity;BMP_temperature;BMP_pressure;BME280_temperature;BME280_humidity;BME280_pressure;Samples;Min_cycle;Max_cycle;Signal;HPM_P1;HPM_P2
2022/06/15 04:01:08;;;;;;;4.20;4.00;;;14.20;99.90;;;;;;5602658;23;20991;-68
2022/06/15 04:03:35;;;;;;;4.20;4.00;;;14.20;99.90;;;;;;4952852;29;20469;-68
2022/06/15 04:06:02;;;;;;;3.20;3.10;;;14.20;99.90;;;;;;4951036;29;20516;-69
2022/06/15 04:08:38;;;;;;;4.40;4.20;;;14.30;99.90;;;;;;4952296;29;20472;-69
2022/06/15 04:11:06;;;;;;;4.10;3.80;;;14.30;99.90;;;;;;4942095;29;20835;-68
2022/06/15 04:13:33;;;;;;;4.63;3.70;;;14.40;99.90;;;;;;4948505;29;20883;-69
2022/06/15 04:16:06;;;;;;;4.13;3.83;;;14.40;99.90;;;;;;4946081;29;20834;-70
2022/06/15 04:18:34;;;;;;;3.37;3.20;;;14.40;99.90;;;;;;4950084;29;20477;-69
2022/06/15 04:21:01;;;;;;;4.33;4.03;;;14.40;99.90;;;;;;4947167;29;20499;-69
2022/06/15 04:23:27;;;;;;;4.40;4.10;;;14.40;99.90;;;;;;4953348;29;20534;-69
2022/06/15 04:25:58;;;;;;;4.03;3.70;;;14.50;99.90;;;;;;4951089;29;20831;-68
2022/06/15 04:28:26;;;;;;;3.53;3.43;;;14.60;99.90;;;;;;4951658;29;20599;-69
2022/06/15 04:30:53;;;;;;;3.63;3.53;;;14.60;99.90;;;;;;4948666;28;21080;-71
2022/06/15 04:33:20;;;;;;;6.50;4.10;;;14.70;99.90;;;;;;4950830;28;20516;-70
2022/06/15 04:35:48;;;;;;;3.67;3.40;;;14.60;99.90;;;;;;4951712;29;20475;-70
2022/06/15 04:38:15;;;;;;;3.47;3.37;;;14.70;99.90;;;;;;4944639;29;20470;-68
2022/06/15 04:40:42;;;;;;;4.43;4.13;;;14.70;99.90;;;;;;4951033;29;20497;-70
2022/06/15 04:43:09;;;;;;;4.10;3.70;;;14.80;99.90;;;;;;4951670;29;20495;-70
2022/06/15 04:45:36;;;;;;;4.60;4.17;;;14.80;99.90;;;;;;4945724;29;20491;-70
2022/06/15 04:48:04;;;;;;;4.50;4.23;;;14.90;99.90;;;;;;4947752;29;20476;-69
2022/06/15 04:50:31;;;;;;;5.03;4.73;;;15.00;99.90;;;;;;4950404;29;20485;-70
2022/06/15 04:53:00;;;;;;;3.93;3.60;;;15.10;99.90;;;;;;4952609;29;20809;-70
2022/06/15 04:55:27;;;;;;;6.87;4.93;;;15.20;99.90;;;;;;4951422;29;20460;-69
2022/06/15 04:57:56;;;;;;;4.23;3.83;;;15.20;99.90;;;;;;4952367;29;20468;-71
2022/06/15 05:00:25;;;;;;;5.40;4.23;;;15.30;99.90;;;;;;4950409;29;20469;-69
2022/06/15 05:02:51;;;;;;;5.00;4.80;;;15.30;99.90;;;;;;4952270;29;20507;-70
2022/06/15 05:05:18;;;;;;;5.00;4.60;;;15.60;99.90;;;;;;4950997;29;20492;-70
2022/06/15 05:07:45;;;;;;;4.27;4.07;;;16.00;99.90;;;;;;4947073;29;20523;-69
2022/06/15 05:10:18;;;;;;;4.57;4.27;;;16.00;99.90;;;;;;4950612;29;21316;-71
2022/06/15 05:12:44;;;;;;;4.60;4.40;;;16.00;99.90;;;;;;4944857;29;20475;-71
2022/06/15 05:15:13;;;;;;;4.90;4.53;;;16.00;99.90;;;;;;4951428;29;20476;-70
2022/06/15 05:17:41;;;;;;;6.10;5.07;;;16.20;99.90;;;;;;4949288;29;20565;-70
2022/06/15 05:20:10;;;;;;;4.73;4.33;;;16.20;99.90;;;;;;4946183;29;20797;-69
2022/06/15 05:22:37;;;;;;;5.13;4.63;;;16.40;99.90;;;;;;4952238;29;21052;-70
2022/06/15 05:25:05;;;;;;;9.87;5.50;;;16.50;99.90;;;;;;4950226;28;20488;-70
2022/06/15 05:27:33;;;;;;;4.60;4.30;;;16.50;99.90;;;;;;4949350;28;20476;-71
2022/06/15 05:30:00;;;;;;;3.83;3.63;;;16.60;99.90;;;;;;4949652;29;20499;-69
2022/06/15 05:32:26;;;;;;;4.70;3.90;;;17.10;99.90;;;;;;4950737;28;20489;-70
2022/06/15 05:34:55;;;;;;;3.53;3.43;;;17.30;99.90;;;;;;4952228;29;20465;-70
2022/06/15 05:37:22;;;;;;;3.70;3.33;;;17.40;99.90;;;;;;4952744;28;20548;-70
2022/06/15 05:39:49;;;;;;;3.27;3.07;;;18.30;99.90;;;;;;4950172;29;20840;-70
2022/06/15 05:42:16;;;;;;;3.97;3.63;;;18.30;99.90;;;;;;4951221;29;20965;-70
2022/06/15 05:44:54;;;;;;;3.50;3.40;;;18.20;99.90;;;;;;4944355;28;20468;-67
2022/06/15 05:47:21;;;;;;;4.03;3.70;;;18.00;99.90;;;;;;4955000;29;20568;-70
2022/06/15 05:49:47;;;;;;;2.80;2.70;;;18.00;99.90;;;;;;4954293;29;20472;-70
2022/06/15 05:52:14;;;;;;;2.97;2.87;;;18.20;99.90;;;;;;4953041;29;20495;-71
2022/06/15 05:54:41;;;;;;;5.30;2.60;;;18.30;99.90;;;;;;4949933;29;20930;-70
2022/06/15 05:57:12;;;;;;;2.40;2.30;;;18.30;99.90;;;;;;4955342;29;20460;-71
2022/06/15 05:59:38;;;;;;;2.60;2.50;;;18.30;99.90;;;;;;4954427;28;20563;-71
2022/06/15 06:02:06;;;;;;;2.47;2.37;;;18.40;99.90;;;;;;4953934;29;20511;-71
2022/06/15 06:04:33;;;;;;;2.57;2.43;;;18.70;99.90;;;;;;4955183;28;20472;-73
2022/06/15 06:06:59;;;;;;;2.93;2.83;;;18.90;99.90;;;;;;4954734;29;20520;-71
2022/06/15 06:09:28;;;;;;;2.60;2.60;;;19.20;99.90;;;;;;4956730;29;20472;-74
2022/06/15 06:11:54;;;;;;;3.97;3.67;;;19.80;99.90;;;;;;4955597;29;20515;-73
2022/06/15 06:14:21;;;;;;;5.37;5.07;;;20.60;99.90;;;;;;4956046;29;20469;-73
2022/06/15 06:16:48;;;;;;;5.13;4.83;;;20.70;99.90;;;;;;4957790;28;20460;-72
2022/06/15 06:19:16;;;;;;;5.80;5.40;;;20.60;99.90;;;;;;4954477;29;20469;-71
2022/06/15 06:21:43;;;;;;;5.77;5.37;;;20.80;99.90;;;;;;4956971;28;20543;-72
2022/06/15 06:24:10;;;;;;;5.87;5.27;;;21.00;99.90;;;;;;4958243;28;20460;-73
2022/06/15 06:26:38;;;;;;;5.87;5.37;;;21.10;99.90;;;;;;4955945;29;20972;-70
2022/06/15 06:29:06;;;;;;;4.63;4.40;;;21.40;99.90;;;;;;4960246;28;20469;-72
2022/06/15 06:31:33;;;;;;;5.03;4.73;;;21.70;99.90;;;;;;4954629;28;20590;-71
2022/06/15 06:34:00;;;;;;;5.17;4.87;;;21.90;99.90;;;;;;4962496;28;20468;-70
2022/06/15 06:36:31;;;;;;;4.63;4.20;;;22.40;99.90;;;;;;4950420;28;20462;-71
2022/06/15 06:38:58;;;;;;;3.03;2.93;;;23.20;99.90;;;;;;4956370;28;20479;-71
2022/06/15 06:41:26;;;;;;;2.30;2.30;;;24.30;99.90;;;;;;4960604;28;20864;-72
2022/06/15 06:43:54;;;;;;;3.23;3.13;;;24.70;99.90;;;;;;4958120;29;20465;-71
2022/06/15 06:46:21;;;;;;;3.53;3.23;;;25.00;99.90;;;;;;4957285;29;20552;-74
2022/06/15 06:48:49;;;;;;;4.23;4.03;;;25.30;99.70;;;;;;4959062;28;20475;-71
2022/06/15 06:51:15;;;;;;;4.20;4.03;;;25.80;99.60;;;;;;4956812;28;20508;-72
2022/06/15 06:53:44;;;;;;;3.73;3.47;;;25.90;98.50;;;;;;4956012;28;20554;-72
2022/06/15 06:56:12;;;;;;;3.90;3.60;;;26.20;97.70;;;;;;4954217;28;20782;-74
2022/06/15 06:58:38;;;;;;;4.30;3.90;;;26.40;96.70;;;;;;4956869;28;20479;-71
2022/06/15 07:01:05;;;;;;;4.10;3.70;;;26.40;97.00;;;;;;4954403;28;20510;-73
2022/06/15 07:03:32;;;;;;;2.97;2.87;;;26.60;95.20;;;;;;4949300;29;20471;-71
2022/06/15 07:06:04;;;;;;;4.03;3.93;;;26.70;95.50;;;;;;4952619;29;20492;-70
2022/06/15 07:08:31;;;;;;;2.90;2.70;;;27.10;95.10;;;;;;4953802;28;20836;-69
2022/06/15 07:11:00;;;;;;;1.77;1.73;;;27.50;93.10;;;;;;4952934;28;20575;-72
2022/06/15 07:13:27;;;;;;;2.40;2.20;;;27.60;92.30;;;;;;4952903;29;20514;-70
2022/06/15 07:15:53;;;;;;;2.33;2.23;;;27.60;92.30;;;;;;4954163;29;20528;-71
2022/06/15 07:18:20;;;;;;;1.50;1.50;;;27.90;91.10;;;;;;4950027;28;20813;-74
2022/06/15 07:20:47;;;;;;;1.27;1.17;;;28.10;89.10;;;;;;4948880;29;20484;-71
2022/06/15 07:23:13;;;;;;;1.13;1.00;;;28.20;85.00;;;;;;4953888;29;20482;-73
2022/06/15 07:25:40;;;;;;;1.17;1.17;;;27.50;81.30;;;;;;4954334;28;20866;-72
2022/06/15 07:28:08;;;;;;;1.10;1.03;;;27.00;83.70;;;;;;4953024;29;20958;-71
2022/06/15 07:30:35;;;;;;;1.27;1.10;;;26.50;84.00;;;;;;4952817;29;20568;-72
2022/06/15 07:33:02;;;;;;;1.53;1.40;;;26.60;84.60;;;;;;4954513;29;20475;-71
2022/06/15 07:35:32;;;;;;;1.57;1.00;;;26.50;83.70;;;;;;4954472;29;20476;-70
2022/06/15 07:37:59;;;;;;;1.37;1.20;;;26.60;83.70;;;;;;4954133;29;20482;-70
2022/06/15 07:40:27;;;;;;;2.30;0.97;;;26.10;85.80;;;;;;4947885;28;20479;-72
2022/06/15 07:42:55;;;;;;;1.30;1.20;;;26.00;86.00;;;;;;4944965;29;20518;-71
2022/06/15 07:45:24;;;;;;;1.13;1.03;;;26.50;86.50;;;;;;4953442;28;20471;-71
2022/06/15 07:50:37;;;;;;;1.87;1.20;;;27.20;83.30;;;;;;4953293;28;20577;-71
2022/06/15 07:53:06;;;;;;;2.03;1.70;;;27.40;81.80;;;;;;4953409;29;20857;-70
2022/06/15 07:55:35;;;;;;;1.50;1.50;;;27.40;82.70;;;;;;4953432;29;20581;-71
2022/06/15 07:58:03;;;;;;;1.30;1.30;;;27.70;81.00;;;;;;4952871;29;20475;-71
2022/06/15 08:00:33;;;;;;;1.13;1.10;;;28.10;79.10;;;;;;4953646;28;20834;-71
2022/06/15 08:03:01;;;;;;;1.03;0.97;;;28.40;78.40;;;;;;4953739;29;20973;-71
2022/06/15 08:05:29;;;;;;;1.30;1.30;;;28.10;79.00;;;;;;4954360;28;20464;-72
2022/06/15 08:07:56;;;;;;;1.23;1.10;;;28.20;79.00;;;;;;4952058;28;20496;-71
2022/06/15 08:10:25;;;;;;;1.63;1.30;;;28.10;77.20;;;;;;4957637;28;20481;-72
2022/06/15 08:12:53;;;;;;;1.67;1.57;;;27.60;79.10;;;;;;4953099;29;20467;-70
2022/06/15 08:15:21;;;;;;;1.50;1.40;;;27.60;79.30;;;;;;4951598;29;20491;-72
2022/06/15 08:17:52;;;;;;;1.37;1.37;;;27.40;78.90;;;;;;4952754;29;20511;-68
2022/06/15 08:20:23;;;;;;;2.57;1.73;;;27.40;80.40;;;;;;4952234;29;20491;-73
2022/06/15 08:22:54;;;;;;;1.73;1.67;;;27.70;75.90;;;;;;4953037;29;20489;-72
2022/06/15 08:25:24;;;;;;;1.50;1.50;;;27.30;76.40;;;;;;4951705;29;20526;-71
2022/06/15 08:27:51;;;;;;;1.63;1.53;;;26.60;76.30;;;;;;4953828;29;20479;-72
2022/06/15 08:30:18;;;;;;;2.73;1.70;;;26.10;78.50;;;;;;4951874;28;20480;-72
2022/06/15 08:32:45;;;;;;;1.57;1.47;;;26.20;79.20;;;;;;4942219;29;20883;-69
2022/06/15 08:35:14;;;;;;;1.93;1.80;;;26.50;79.30;;;;;;4952034;29;20479;-70
2022/06/15 08:37:41;;;;;;;1.93;1.57;;;26.00;80.40;;;;;;4952258;28;20472;-69
2022/06/15 08:40:09;;;;;;;3.53;1.70;;;26.00;80.10;;;;;;4951337;28;20990;-72
2022/06/15 08:42:46;;;;;;;1.80;1.70;;;25.50;82.40;;;;;;4949440;29;20498;-70
2022/06/15 08:45:22;;;;;;;1.70;1.60;;;25.40;83.30;;;;;;4952145;29;20462;-70
2022/06/15 08:48:13;;;;;;;3.03;2.00;;;25.90;80.60;;;;;;4951429;29;20483;-72
2022/06/15 08:50:49;;;;;;;2.30;1.77;;;26.30;80.10;;;;;;4950593;29;20542;-70
2022/06/15 08:53:19;;;;;;;2.00;1.90;;;26.90;80.70;;;;;;4952018;29;20470;-69
2022/06/15 08:55:50;;;;;;;3.00;1.90;;;27.00;79.40;;;;;;4948524;29;20555;-70
2022/06/15 08:58:26;;;;;;;1.70;1.60;;;26.70;79.50;;;;;;4951668;29;20979;-69
2022/06/15 09:00:58;;;;;;;2.00;2.00;;;26.70;80.10;;;;;;4945286;28;20499;-70
2022/06/15 09:03:33;;;;;;;2.00;1.90;;;26.70;79.70;;;;;;4951758;29;20506;-70
2022/06/15 09:06:11;;;;;;;2.00;2.00;;;26.20;80.40;;;;;;4950505;29;20873;-71
2022/06/15 09:08:58;;;;;;;1.70;1.70;;;25.60;82.30;;;;;;4949339;28;20995;-70
2022/06/15 09:11:40;;;;;;;2.10;2.00;;;25.00;83.50;;;;;;4949443;29;20485;-68
2022/06/15 09:14:19;;;;;;;1.90;1.80;;;24.80;84.00;;;;;;4954993;29;20849;-70
2022/06/15 09:16:56;;;;;;;3.00;2.30;;;24.50;85.10;;;;;;4943305;29;20529;-70
2022/06/15 09:19:27;;;;;;;2.30;2.20;;;24.20;85.10;;;;;;4945934;28;20537;-71
2022/06/15 09:22:01;;;;;;;2.73;2.53;;;24.00;86.80;;;;;;4955499;28;20499;-71
2022/06/15 09:24:36;;;;;;;1.97;1.87;;;24.30;86.60;;;;;;4956301;29;20936;-70
2022/06/15 09:27:09;;;;;;;3.47;3.17;;;24.20;86.10;;;;;;4954000;29;20590;-70
2022/06/15 09:29:41;;;;;;;3.37;2.23;;;24.30;85.80;;;;;;4953279;29;20539;-70
2022/06/15 09:32:17;;;;;;;2.20;2.00;;;24.40;86.10;;;;;;4955722;28;20510;-68
2022/06/15 09:34:50;;;;;;;3.63;2.47;;;24.60;84.60;;;;;;4955736;29;20471;-72
2022/06/15 09:37:21;;;;;;;3.50;2.80;;;24.00;84.60;;;;;;4954366;29;20463;-70
2022/06/15 09:39:49;;;;;;;3.13;2.90;;;23.70;86.00;;;;;;4954290;29;20462;-70
2022/06/15 09:42:19;;;;;;;8.20;4.60;;;24.10;87.30;;;;;;4955811;28;20616;-70
2022/06/15 09:44:54;;;;;;;2.70;2.50;;;24.50;85.60;;;;;;4954007;29;20474;-70
2022/06/15 09:47:35;;;;;;;5.87;2.77;;;24.70;84.20;;;;;;4956046;29;20513;-71
2022/06/15 09:50:11;;;;;;;2.03;1.93;;;24.90;84.80;;;;;;4952549;29;20482;-70
2022/06/15 09:52:55;;;;;;;2.93;2.73;;;25.00;83.60;;;;;;4954232;28;20490;-70
2022/06/15 09:55:32;;;;;;;2.37;2.27;;;24.70;82.70;;;;;;4955027;29;20467;-69
2022/06/15 09:58:01;;;;;;;2.43;2.23;;;24.30;83.70;;;;;;4955104;29;20481;-68
2022/06/15 10:00:29;;;;;;;2.10;2.00;;;24.10;87.30;;;;;;4945777;28;20529;-70
2022/06/15 10:03:01;;;;;;;3.17;2.43;;;23.90;88.10;;;;;;4953115;29;20465;-69
2022/06/15 10:05:31;;;;;;;2.33;2.13;;;23.70;89.10;;;;;;4955353;29;20456;-71
2022/06/15 10:08:04;;;;;;;3.40;2.00;;;23.70;89.70;;;;;;4953149;29;20492;-71
2022/06/15 10:10:34;;;;;;;1.90;1.80;;;23.80;89.90;;;;;;4950942;28;20460;-71
2022/06/15 10:13:07;;;;;;;2.63;2.53;;;23.90;88.50;;;;;;4955364;29;20473;-70
2022/06/15 10:15:49;;;;;;;2.30;2.30;;;24.00;89.40;;;;;;4953258;29;20472;-71
2022/06/15 10:18:20;;;;;;;2.43;2.33;;;23.80;89.30;;;;;;4955729;28;20488;-70
2022/06/15 10:21:03;;;;;;;2.70;2.60;;;23.30;88.40;;;;;;4935697;29;20859;-70
2022/06/15 10:23:43;;;;;;;2.80;2.57;;;23.30;90.00;;;;;;4953442;29;20617;-71
2022/06/15 10:26:22;;;;;;;2.30;2.30;;;23.20;89.50;;;;;;4952715;29;20988;-71
2022/06/15 10:28:48;;;;;;;2.23;2.17;;;23.10;89.30;;;;;;4954265;29;20456;-72
2022/06/15 10:31:17;;;;;;;2.83;2.73;;;23.00;90.10;;;;;;4952054;28;20494;-70
2022/06/15 10:33:47;;;;;;;2.70;2.50;;;22.70;90.00;;;;;;4946486;29;20544;-71
2022/06/15 10:36:22;;;;;;;2.83;2.73;;;22.80;90.50;;;;;;4951241;29;20453;-71
2022/06/15 10:38:55;;;;;;;3.03;2.83;;;23.00;90.90;;;;;;4940700;29;20644;-70
2022/06/15 10:41:48;;;;;;;3.27;3.03;;;23.10;89.20;;;;;;4954685;28;20565;-71
2022/06/15 10:44:24;;;;;;;2.23;2.13;;;23.30;90.30;;;;;;4953727;29;20500;-70
2022/06/15 10:46:53;;;;;;;2.20;2.10;;;23.40;90.50;;;;;;4948223;29;20476;-71
2022/06/15 10:49:21;;;;;;;2.77;2.63;;;23.40;90.00;;;;;;4954382;28;20503;-70
2022/06/15 10:51:48;;;;;;;2.60;2.50;;;23.30;90.20;;;;;;4955174;28;20610;-71
2022/06/15 10:54:24;;;;;;;2.37;2.27;;;23.10;89.60;;;;;;4953744;29;20464;-69
2022/06/15 11:02:29;;;;;;;3.60;3.40;;;23.50;89.30;;;;;;4945442;29;20487;-71
2022/06/15 11:05:00;;;;;;;3.67;2.93;;;23.50;89.50;;;;;;4954775;29;20468;-71
2022/06/15 11:07:32;;;;;;;3.03;2.73;;;23.70;89.50;;;;;;4953709;29;20485;-71
2022/06/15 11:10:11;;;;;;;2.60;2.60;;;23.80;89.80;;;;;;4953272;28;20938;-70
2022/06/15 11:12:43;;;;;;;2.37;2.27;;;24.00;90.10;;;;;;4953844;29;20488;-69
2022/06/15 11:18:26;;;;;;;3.13;2.97;;;24.00;89.40;;;;;;4946207;29;20892;-68
2022/06/15 11:20:59;;;;;;;2.53;2.40;;;23.80;87.10;;;;;;4951791;28;20492;-68
2022/06/15 11:23:31;;;;;;;2.80;2.50;;;23.90;88.60;;;;;;4952743;29;20887;-69
2022/06/15 11:26:51;;;;;;;2.27;2.17;;;23.70;88.30;;;;;;4950847;29;20811;-69
2022/06/15 11:28:56;;;;;;;3.03;2.83;;;23.60;89.00;;;;;;4954353;29;20480;-68
2022/06/15 11:31:25;;;;;;;4.87;2.80;;;23.70;89.10;;;;;;4952398;29;20485;-69
2022/06/15 11:33:58;;;;;;;2.53;2.33;;;23.90;89.90;;;;;;4953116;29;20582;-68
2022/06/15 11:36:32;;;;;;;2.80;2.40;;;24.00;89.30;;;;;;4954209;29;20918;-68
2022/06/15 11:39:04;;;;;;;2.97;2.87;;;23.90;88.70;;;;;;4953819;29;20464;-69
2022/06/15 11:41:40;;;;;;;3.10;3.00;;;23.90;88.20;;;;;;4953385;28;20525;-70
2022/06/15 11:44:14;;;;;;;2.47;2.37;;;23.90;88.40;;;;;;4953092;29;20479;-68
2022/06/15 11:46:51;;;;;;;3.10;2.90;;;23.80;88.10;;;;;;4954067;29;20468;-68
2022/06/15 11:49:29;;;;;;;3.27;2.90;;;23.60;89.00;;;;;;4953912;29;20468;-68
2022/06/15 11:52:17;;;;;;;4.40;3.00;;;23.70;89.10;;;;;;4953753;28;21036;-67
2022/06/15 11:54:59;;;;;;;2.50;2.40;;;23.70;88.00;;;;;;4953594;29;20788;-68
2022/06/15 11:57:38;;;;;;;2.83;2.73;;;23.80;88.70;;;;;;4953871;29;20457;-69
2022/06/15 12:00:19;;;;;;;3.50;2.70;;;23.80;88.30;;;;;;4953161;29;20464;-69
2022/06/15 12:03:02;;;;;;;2.70;2.60;;;23.90;89.20;;;;;;4953727;29;20544;-69
2022/06/15 12:05:37;;;;;;;3.20;2.90;;;24.10;89.40;;;;;;4954322;29;20464;-69
2022/06/15 12:08:15;;;;;;;2.87;2.63;;;24.10;88.70;;;;;;4953799;29;20492;-69
2022/06/15 12:10:46;;;;;;;2.47;2.47;;;24.20;86.80;;;;;;4952579;29;20480;-68
2022/06/15 12:13:24;;;;;;;2.70;2.60;;;24.30;87.50;;;;;;4953809;28;20496;-69
2022/06/15 12:15:56;;;;;;;4.07;2.90;;;24.40;86.80;;;;;;4953044;29;20464;-69
2022/06/15 12:18:38;;;;;;;3.30;2.80;;;24.40;86.10;;;;;;4953696;29;20461;-69
2022/06/15 12:21:11;;;;;;;3.60;2.50;;;24.50;87.00;;;;;;4953186;29;20489;-69
2022/06/15 12:23:43;;;;;;;2.47;2.37;;;24.30;86.10;;;;;;4953327;29;20778;-69
2022/06/15 12:26:24;;;;;;;2.90;2.80;;;24.20;87.30;;;;;;4952895;29;20483;-69
2022/06/15 12:29:01;;;;;;;2.50;2.50;;;24.30;86.60;;;;;;4953220;29;20479;-69
2022/06/15 12:31:37;;;;;;;2.27;2.17;;;24.30;86.20;;;;;;4952412;29;20488;-69
2022/06/15 12:34:13;;;;;;;2.10;2.00;;;24.30;84.80;;;;;;4953245;29;20464;-68
2022/06/15 12:36:46;;;;;;;2.80;2.70;;;24.50;86.40;;;;;;4953227;29;20468;-70
2022/06/15 12:39:19;;;;;;;4.47;2.70;;;24.60;85.10;;;;;;4952851;29;20997;-70
2022/06/15 12:44:38;;;;;;;2.70;2.50;;;24.80;85.00;;;;;;4952638;29;20472;-70
2022/06/15 12:47:06;;;;;;;2.53;2.53;;;24.70;84.40;;;;;;4952950;29;20465;-70
2022/06/15 12:49:38;;;;;;;2.60;2.50;;;24.70;84.30;;;;;;4952571;29;21020;-69
2022/06/15 12:52:14;;;;;;;2.60;2.50;;;25.00;85.20;;;;;;4953175;29;20511;-70
2022/06/15 12:54:52;;;;;;;2.37;2.13;;;24.80;85.00;;;;;;4952441;28;20523;-70
2022/06/15 12:57:28;;;;;;;2.50;2.37;;;25.00;86.00;;;;;;4953085;29;20838;-70
2022/06/15 13:00:06;;;;;;;2.70;2.50;;;25.20;83.80;;;;;;4945874;29;20547;-68
2022/06/15 13:02:38;;;;;;;2.70;2.60;;;25.30;83.00;;;;;;4952861;28;20495;-69
2022/06/15 13:05:19;;;;;;;5.93;2.40;;;25.20;84.10;;;;;;4952925;29;20535;-69
2022/06/15 13:08:20;;;;;;;2.80;2.60;;;25.30;82.30;;;;;;4953068;29;20492;-69
2022/06/15 13:11:09;;;;;;;3.50;2.67;;;25.20;84.30;;;;;;4950516;28;20519;-69
2022/06/15 13:13:38;;;;;;;2.90;2.60;;;25.10;83.50;;;;;;4952744;29;20937;-69
2022/06/15 13:16:08;;;;;;;3.00;2.77;;;25.00;83.40;;;;;;4952569;29;20468;-69
2022/06/15 13:18:49;;;;;;;3.30;2.97;;;25.00;83.10;;;;;;4952928;29;20543;-69
2022/06/15 13:21:17;;;;;;;2.87;2.77;;;24.90;83.40;;;;;;4952855;28;20848;-70
2022/06/15 13:23:47;;;;;;;2.87;2.67;;;24.80;83.00;;;;;;4952681;29;20468;-69
2022/06/15 13:26:20;;;;;;;2.73;2.50;;;24.90;83.60;;;;;;4952652;29;20962;-68
2022/06/15 13:29:21;;;;;;;3.57;3.07;;;25.00;83.10;;;;;;4953015;29;20485;-69
2022/06/15 13:31:49;;;;;;;2.77;2.67;;;24.90;83.00;;;;;;4952123;28;20488;-69
2022/06/15 13:34:17;;;;;;;2.67;2.60;;;24.50;82.40;;;;;;4952468;29;20508;-69
2022/06/15 13:37:24;;;;;;;4.00;3.03;;;24.40;82.70;;;;;;4952944;29;20889;-69
2022/06/15 13:39:56;;;;;;;2.93;2.70;;;24.60;82.80;;;;;;4952345;29;20491;-70
2022/06/15 13:42:34;;;;;;;2.47;2.27;;;24.70;82.80;;;;;;4952944;29;20495;-70
2022/06/15 13:45:05;;;;;;;2.43;2.33;;;24.90;82.00;;;;;;4952205;29;20521;-70
2022/06/15 13:47:41;;;;;;;2.80;2.70;;;24.90;81.20;;;;;;4952593;29;20938;-69
2022/06/15 13:50:13;;;;;;;3.43;3.30;;;24.70;82.00;;;;;;4952196;29;20471;-71
2022/06/15 13:52:43;;;;;;;3.03;2.70;;;24.80;83.10;;;;;;4952648;29;20469;-70
2022/06/15 13:55:39;;;;;;;3.13;3.00;;;24.70;81.90;;;;;;4951446;29;20979;-69
2022/06/15 13:58:40;;;;;;;3.13;2.63;;;24.80;81.80;;;;;;4952425;29;20472;-70
2022/06/15 14:01:14;;;;;;;2.87;2.77;;;24.90;81.30;;;;;;4951719;29;20554;-69
2022/06/15 14:04:14;;;;;;;2.83;2.63;;;25.00;82.50;;;;;;4952509;29;20472;-72
2022/06/15 14:06:54;;;;;;;4.13;3.83;;;25.20;82.20;;;;;;4952211;28;20491;-69
2022/06/15 14:09:32;;;;;;;3.43;2.80;;;25.40;82.70;;;;;;4955869;29;20488;-69
2022/06/15 14:12:32;;;;;;;2.73;2.63;;;25.60;81.70;;;;;;4955467;29;20902;-69
2022/06/15 14:15:27;;;;;;;3.10;2.90;;;25.60;81.20;;;;;;4955192;29;20475;-70
2022/06/15 14:18:25;;;;;;;2.77;2.67;;;25.70;81.40;;;;;;4956109;29;20477;-70
2022/06/15 14:20:52;;;;;;;2.90;2.67;;;25.70;81.10;;;;;;4952722;29;20560;-69
2022/06/15 14:23:28;;;;;;;2.63;2.53;;;25.60;81.50;;;;;;4952286;29;20460;-69
2022/06/15 14:25:57;;;;;;;2.90;2.60;;;25.60;80.90;;;;;;4955187;29;20468;-70
2022/06/15 14:28:26;;;;;;;2.77;2.67;;;25.50;80.30;;;;;;4955900;29;20836;-69
2022/06/15 14:31:02;;;;;;;2.60;2.40;;;25.50;81.10;;;;;;4954861;28;20495;-68
2022/06/15 14:33:29;;;;;;;3.17;2.80;;;25.60;81.80;;;;;;4955714;29;20468;-68
2022/06/15 14:36:01;;;;;;;2.40;2.30;;;25.60;81.10;;;;;;4955599;29;20469;-68
2022/06/15 14:38:29;;;;;;;2.83;2.60;;;25.70;80.50;;;;;;4956085;29;20535;-70
2022/06/15 14:41:13;;;;;;;2.97;2.87;;;25.60;80.60;;;;;;4955667;28;20493;-69
2022/06/15 14:43:41;;;;;;;2.80;2.70;;;25.50;80.40;;;;;;4956639;29;20465;-70
2022/06/15 14:46:07;;;;;;;2.47;2.37;;;25.60;81.00;;;;;;4954928;29;20464;-70
2022/06/15 14:48:37;;;;;;;2.90;2.80;;;25.60;81.10;;;;;;4955623;29;20489;-70
2022/06/15 14:51:12;;;;;;;2.57;2.37;;;25.70;80.60;;;;;;4955444;28;20488;-70
2022/06/15 14:53:54;;;;;;;2.70;2.60;;;25.30;81.20;;;;;;4955514;29;20490;-69
2022/06/15 14:56:24;;;;;;;2.53;2.33;;;25.40;82.30;;;;;;4955354;29;20464;-70
2022/06/15 14:58:58;;;;;;;3.90;3.13;;;25.50;81.10;;;;;;4948461;29;20468;-70
2022/06/15 15:01:26;;;;;;;2.77;2.77;;;25.70;81.40;;;;;;4954335;28;20977;-70
2022/06/15 15:03:53;;;;;;;3.17;2.97;;;26.00;80.80;;;;;;4954778;29;21001;-70
2022/06/15 15:06:21;;;;;;;5.00;2.90;;;26.00;80.20;;;;;;4955305;29;20527;-70
2022/06/15 15:08:49;;;;;;;2.90;2.70;;;25.90;80.20;;;;;;4954793;29;20481;-69
2022/06/15 15:11:31;;;;;;;2.83;2.70;;;25.70;80.20;;;;;;4953826;28;20488;-69
2022/06/15 15:14:00;;;;;;;2.67;2.67;;;25.70;80.40;;;;;;4954955;29;20559;-69
2022/06/15 15:16:31;;;;;;;2.67;2.57;;;25.70;80.00;;;;;;4954398;28;20469;-68
2022/06/15 15:19:00;;;;;;;2.50;2.30;;;25.60;80.50;;;;;;4954749;29;20471;-69
2022/06/15 15:21:30;;;;;;;2.77;2.67;;;25.60;80.60;;;;;;4954412;28;20480;-70
2022/06/15 15:24:00;;;;;;;3.03;2.83;;;25.50;81.10;;;;;;4954601;29;20469;-69
2022/06/15 15:26:32;;;;;;;2.83;2.63;;;25.50;81.30;;;;;;4954019;29;20563;-70
2022/06/15 15:35:10;;;;;;;3.03;2.93;;;25.40;83.30;;;;;;4954045;29;20456;-69
2022/06/15 15:37:37;;;;;;;3.50;3.30;;;25.70;82.00;;;;;;4952586;28;20579;-68
2022/06/15 15:40:10;;;;;;;2.90;2.70;;;25.40;81.80;;;;;;4953610;28;20807;-69
2022/06/15 15:42:39;;;;;;;2.53;2.53;;;25.30;82.80;;;;;;4954066;28;20509;-69
2022/06/15 15:45:07;;;;;;;2.57;2.10;;;25.40;82.00;;;;;;4953763;29;20965;-69
2022/06/15 15:47:33;;;;;;;2.60;2.50;;;25.60;82.90;;;;;;4954130;28;20929;-68
2022/06/15 15:50:00;;;;;;;2.40;2.20;;;25.70;82.30;;;;;;4953701;29;20500;-68
2022/06/15 15:52:27;;;;;;;2.67;2.47;;;25.40;80.90;;;;;;4954501;28;20495;-70
2022/06/15 15:54:55;;;;;;;2.73;2.70;;;25.30;83.30;;;;;;4953472;29;20581;-68
2022/06/15 15:57:23;;;;;;;2.40;2.30;;;25.40;82.50;;;;;;4954288;28;20464;-68
2022/06/15 15:59:52;;;;;;;3.83;2.43;;;25.30;82.40;;;;;;4954124;29;20464;-68
2022/06/15 16:02:22;;;;;;;2.00;2.00;;;25.40;82.40;;;;;;4953563;28;20500;-69
2022/06/15 16:04:50;;;;;;;3.50;2.80;;;25.50;81.80;;;;;;4953867;29;20476;-69
2022/06/15 16:07:21;;;;;;;2.80;2.70;;;25.50;81.10;;;;;;4953786;28;20552;-69
2022/06/15 16:09:49;;;;;;;2.27;2.17;;;25.30;81.50;;;;;;4953463;29;20500;-69
2022/06/15 16:12:17;;;;;;;2.20;2.20;;;25.30;82.40;;;;;;4953340;28;20511;-68
2022/06/15 16:14:44;;;;;;;2.30;2.20;;;25.40;82.30;;;;;;4953073;29;20926;-69
2022/06/15 16:17:12;;;;;;;3.03;2.83;;;25.40;82.70;;;;;;4954425;29;20476;-69
2022/06/15 16:19:40;;;;;;;2.33;2.33;;;25.40;81.80;;;;;;4953448;29;20520;-69
2022/06/15 16:22:08;;;;;;;2.20;2.10;;;25.30;82.50;;;;;;4949063;28;20563;-69
2022/06/15 16:24:35;;;;;;;3.00;2.70;;;25.40;82.20;;;;;;4954150;29;20465;-69
2022/06/15 16:27:03;;;;;;;2.47;2.47;;;25.40;82.80;;;;;;4954039;29;20511;-68
2022/06/15 16:29:31;;;;;;;2.93;2.70;;;25.40;82.00;;;;;;4952767;28;20528;-69
2022/06/15 16:31:57;;;;;;;2.83;2.63;;;25.30;82.40;;;;;;4953630;28;20546;-69
2022/06/15 16:34:25;;;;;;;3.67;3.23;;;25.10;82.30;;;;;;4953288;29;20466;-70
2022/06/15 16:36:53;;;;;;;2.70;2.60;;;25.10;82.50;;;;;;4953402;29;20564;-69
2022/06/15 16:39:19;;;;;;;3.10;3.00;;;25.30;83.10;;;;;;4953286;29;20573;-70
2022/06/15 16:41:46;;;;;;;3.03;2.83;;;25.30;81.80;;;;;;4952320;28;20488;-70
2022/06/15 16:44:13;;;;;;;2.90;2.70;;;25.00;82.90;;;;;;4952428;29;20962;-69
2022/06/15 16:46:40;;;;;;;2.80;2.70;;;25.00;83.60;;;;;;4953277;29;20468;-70
2022/06/15 16:49:07;;;;;;;2.27;2.17;;;25.00;83.40;;;;;;4953528;29;20484;-69
2022/06/15 16:51:35;;;;;;;2.60;2.50;;;25.00;83.30;;;;;;4953204;28;20513;-70
2022/06/15 16:54:04;;;;;;;2.70;2.60;;;24.90;83.20;;;;;;4952813;29;20471;-71
2022/06/15 16:56:34;;;;;;;2.87;2.77;;;24.80;83.50;;;;;;4952497;29;20464;-70
2022/06/15 16:59:04;;;;;;;2.80;2.67;;;24.80;83.30;;;;;;4946089;29;20792;-70
2022/06/15 17:01:31;;;;;;;2.50;2.47;;;24.80;83.30;;;;;;4951890;28;20489;-69
2022/06/15 17:03:58;;;;;;;2.70;2.50;;;24.70;83.60;;;;;;4953471;28;20512;-71
2022/06/15 17:06:25;;;;;;;3.40;2.40;;;24.70;83.70;;;;;;4952880;29;20465;-69
2022/06/15 17:08:53;;;;;;;2.30;2.20;;;24.70;84.60;;;;;;4952967;28;20492;-69
2022/06/15 17:11:21;;;;;;;3.13;2.47;;;24.80;84.00;;;;;;4952279;28;20494;-69
2022/06/15 17:13:48;;;;;;;3.50;3.30;;;24.70;83.80;;;;;;4952993;29;20778;-70
2022/06/15 17:16:15;;;;;;;3.60;2.70;;;24.70;84.80;;;;;;4952270;29;20469;-71
2022/06/15 17:18:42;;;;;;;3.00;2.90;;;24.70;83.00;;;;;;4952410;29;20461;-69
2022/06/15 17:21:10;;;;;;;3.17;3.00;;;24.80;83.50;;;;;;4952394;28;20486;-69
2022/06/15 17:23:39;;;;;;;2.90;2.70;;;24.70;83.30;;;;;;4952214;29;20478;-69
2022/06/15 17:26:09;;;;;;;2.63;2.40;;;24.70;83.80;;;;;;4952261;29;20475;-69
2022/06/15 17:28:37;;;;;;;2.60;2.50;;;24.70;84.70;;;;;;4952385;29;20531;-69
2022/06/15 17:31:08;;;;;;;2.93;2.83;;;24.70;84.20;;;;;;4951615;28;21016;-70